sensor_id;sensor_type;location;lat;lon;timestamp;P1;durP1;ratioP1;P2;durP2;ratioP2
13349;SDS011;6744;53.190;6.576;2023-04-06T00:00:07;5.70;;;5.20;;
13349;SDS011;6744;53.190;6.576;2023-04-06T00:02:34;5.10;;;4.60;;
13349;SDS011;6744;53.190;6.576;2023-04-06T00:04:59;5.60;;;5.10;;
13349;SDS011;6744;53.190;6.576;2023-04-06T00:07:25;5.97;;;5.33;;
13349;SDS011;6744;53.190;6.576;2023-04-06T00:09:51;6.00;;;5.50;;
13349;SDS011;6744;53.190;6.576;2023-04-06T00:12:16;7.20;;;5.80;;
13349;SDS011;6744;53.190;6.576;2023-04-06T00:14:41;6.47;;;5.87;;
13349;SDS011;6744;53.190;6.576;2023-04-06T00:17:07;5.87;;;5.27;;
13349;SDS011;6744;53.190;6.576;2023-04-06T00:19:32;5.83;;;5.27;;
13349;SDS011;6744;53.190;6.576;2023-04-06T00:21:58;6.13;;;5.33;;
13349;SDS011;6744;53.190;6.576;2023-04-06T00:24:23;6.10;;;5.50;;
13349;SDS011;6744;53.190;6.576;2023-04-06T00:26:48;7.03;;;6.33;;
13349;SDS011;6744;53.190;6.576;2023-04-06T00:29:14;6.57;;;5.97;;
13349;SDS011;6744;53.190;6.576;2023-04-06T00:31:40;6.33;;;5.73;;
13349;SDS011;6744;53.190;6.576;2023-04-06T00:34:05;7.40;;;6.30;;
13349;SDS011;6744;53.190;6.576;2023-04-06T00:36:30;6.30;;;4.93;;
13349;SDS011;6744;53.190;6.576;2023-04-06T00:38:56;7.00;;;6.30;;
13349;SDS011;6744;53.190;6.576;2023-04-06T00:41:21;6.57;;;5.77;;
13349;SDS011;6744;53.190;6.576;2023-04-06T00:43:47;6.83;;;6.13;;
13349;SDS011;6744;53.190;6.576;2023-04-06T00:46:12;6.37;;;5.77;;
13349;SDS011;6744;53.190;6.576;2023-04-06T00:48:37;6.47;;;5.30;;
13349;SDS011;6744;53.190;6.576;2023-04-06T00:51:04;6.93;;;6.07;;
13349;SDS011;6744;53.190;6.576;2023-04-06T00:53:29;6.43;;;5.83;;
13349;SDS011;6744;53.190;6.576;2023-04-06T00:55:55;7.20;;;5.83;;
13349;SDS011;6744;53.190;6.576;2023-04-06T00:58:20;6.00;;;5.40;;
13349;SDS011;6744;53.190;6.576;2023-04-06T01:00:45;8.30;;;6.53;;
13349;SDS011;6744;53.190;6.576;2023-04-06T01:03:11;7.10;;;6.13;;
13349;SDS011;6744;53.190;6.576;2023-04-06T01:05:36;6.70;;;6.00;;
13349;SDS011;6744;53.190;6.576;2023-04-06T01:08:05;7.03;;;5.33;;
13349;SDS011;6744;53.190;6.576;2023-04-06T01:10:31;6.60;;;5.90;;
13349;SDS011;6744;53.190;6.576;2023-04-06T01:12:56;5.97;;;5.37;;
13349;SDS011;6744;53.190;6.576;2023-04-06T01:15:22;6.47;;;5.80;;
13349;SDS011;6744;53.190;6.576;2023-04-06T01:17:48;7.37;;;6.10;;
13349;SDS011;6744;53.190;6.576;2023-04-06T01:20:14;6.77;;;5.87;;
13349;SDS011;6744;53.190;6.576;2023-04-06T01:22:39;7.30;;;6.60;;
13349;SDS011;6744;53.190;6.576;2023-04-06T01:25:05;6.20;;;5.60;;
13349;SDS011;6744;53.190;6.576;2023-04-06T01:27:31;6.77;;;5.27;;
13349;SDS011;6744;53.190;6.576;2023-04-06T01:29:56;6.53;;;5.87;;
13349;SDS011;6744;53.190;6.576;2023-04-06T01:32:22;6.10;;;5.57;;
13349;SDS011;6744;53.190;6.576;2023-04-06T01:34:47;6.77;;;6.10;;
13349;SDS011;6744;53.190;6.576;2023-04-06T01:37:12;6.10;;;5.50;;
13349;SDS011;6744;53.190;6.576;2023-04-06T01:39:38;5.93;;;5.43;;
13349;SDS011;6744;53.190;6.576;2023-04-06T01:42:03;6.07;;;5.47;;
13349;SDS011;6744;53.190;6.576;2023-04-06T01:44:28;5.90;;;5.30;;
13349;SDS011;6744;53.190;6.576;2023-04-06T01:46:55;6.67;;;6.03;;
13349;SDS011;6744;53.190;6.576;2023-04-06T01:49:21;6.10;;;5.40;;
13349;SDS011;6744;53.190;6.576;2023-04-06T01:51:46;6.57;;;5.40;;
13349;SDS011;6744;53.190;6.576;2023-04-06T01:54:12;7.20;;;5.80;;
13349;SDS011;6744;53.190;6.576;2023-04-06T01:56:37;7.30;;;6.60;;
13349;SDS011;6744;53.190;6.576;2023-04-06T01:59:02;6.57;;;5.83;;
13349;SDS011;6744;53.190;6.576;2023-04-06T02:01:28;6.50;;;5.73;;
13349;SDS011;6744;53.190;6.576;2023-04-06T02:03:53;8.47;;;6.40;;
13349;SDS011;6744;53.190;6.576;2023-04-06T02:06:19;8.10;;;6.27;;
13349;SDS011;6744;53.190;6.576;2023-04-06T02:08:44;6.50;;;5.90;;
13349;SDS011;6744;53.190;6.576;2023-04-06T02:11:09;7.23;;;6.53;;
13349;SDS011;6744;53.190;6.576;2023-04-06T02:13:35;7.83;;;6.87;;
13349;SDS011;6744;53.190;6.576;2023-04-06T02:16:00;7.40;;;6.23;;
13349;SDS011;6744;53.190;6.576;2023-04-06T02:18:27;6.77;;;6.17;;
13349;SDS011;6744;53.190;6.576;2023-04-06T02:20:53;7.17;;;6.47;;
13349;SDS011;6744;53.190;6.576;2023-04-06T02:23:18;7.00;;;6.30;;
13349;SDS011;6744;53.190;6.576;2023-04-06T02:25:44;6.80;;;6.10;;
13349;SDS011;6744;53.190;6.576;2023-04-06T02:28:09;7.63;;;6.77;;
13349;SDS011;6744;53.190;6.576;2023-04-06T02:30:35;7.10;;;6.40;;
13349;SDS011;6744;53.190;6.576;2023-04-06T02:33:00;6.60;;;6.00;;
13349;SDS011;6744;53.190;6.576;2023-04-06T02:35:27;9.10;;;8.03;;
13349;SDS011;6744;53.190;6.576;2023-04-06T02:37:53;7.33;;;6.63;;
13349;SDS011;6744;53.190;6.576;2023-04-06T02:40:18;8.73;;;7.83;;
13349;SDS011;6744;53.190;6.576;2023-04-06T02:42:44;7.30;;;6.60;;
13349;SDS011;6744;53.190;6.576;2023-04-06T02:45:09;7.30;;;6.30;;
13349;SDS011;6744;53.190;6.576;2023-04-06T02:47:35;7.97;;;7.17;;
13349;SDS011;6744;53.190;6.576;2023-04-06T02:50:00;7.90;;;7.10;;
13349;SDS011;6744;53.190;6.576;2023-04-06T02:52:26;7.43;;;6.60;;
13349;SDS011;6744;53.190;6.576;2023-04-06T02:54:51;8.23;;;7.07;;
13349;SDS011;6744;53.190;6.576;2023-04-06T02:57:17;7.53;;;6.83;;
13349;SDS011;6744;53.190;6.576;2023-04-06T02:59:42;8.03;;;7.10;;
13349;SDS011;6744;53.190;6.576;2023-04-06T03:02:07;7.57;;;6.83;;
13349;SDS011;6744;53.190;6.576;2023-04-06T03:04:33;7.60;;;6.77;;
13349;SDS011;6744;53.190;6.576;2023-04-06T03:06:58;7.10;;;6.40;;
13349;SDS011;6744;53.190;6.576;2023-04-06T03:09:23;8.00;;;7.20;;
13349;SDS011;6744;53.190;6.576;2023-04-06T03:11:49;8.23;;;6.60;;
13349;SDS011;6744;53.190;6.576;2023-04-06T03:14:14;7.00;;;6.30;;
13349;SDS011;6744;53.190;6.576;2023-04-06T03:16:39;7.20;;;6.60;;
13349;SDS011;6744;53.190;6.576;2023-04-06T03:19:05;8.63;;;6.63;;
13349;SDS011;6744;53.190;6.576;2023-04-06T03:21:30;7.40;;;6.67;;
13349;SDS011;6744;53.190;6.576;2023-04-06T03:23:55;6.63;;;5.97;;
13349;SDS011;6744;53.190;6.576;2023-04-06T03:26:21;7.00;;;6.30;;
13349;SDS011;6744;53.190;6.576;2023-04-06T03:28:47;7.10;;;6.40;;
13349;SDS011;6744;53.190;6.576;2023-04-06T03:31:12;7.63;;;6.83;;
13349;SDS011;6744;53.190;6.576;2023-04-06T03:33:37;9.80;;;7.00;;
13349;SDS011;6744;53.190;6.576;2023-04-06T03:36:03;7.17;;;6.47;;
13349;SDS011;6744;53.190;6.576;2023-04-06T03:38:29;7.10;;;6.40;;
13349;SDS011;6744;53.190;6.576;2023-04-06T03:40:54;7.80;;;7.03;;
13349;SDS011;6744;53.190;6.576;2023-04-06T03:43:19;7.07;;;6.47;;
13349;SDS011;6744;53.190;6.576;2023-04-06T03:45:45;8.37;;;7.07;;
13349;SDS011;6744;53.190;6.576;2023-04-06T03:48:10;7.33;;;6.53;;
13349;SDS011;6744;53.190;6.576;2023-04-06T03:50:35;7.80;;;7.00;;
13349;SDS011;6744;53.190;6.576;2023-04-06T03:53:01;7.90;;;7.03;;
13349;SDS011;6744;53.190;6.576;2023-04-06T03:55:28;6.93;;;6.27;;
13349;SDS011;6744;53.190;6.576;2023-04-06T03:57:53;7.70;;;7.00;;
13349;SDS011;6744;53.190;6.576;2023-04-06T04:00:18;8.63;;;7.60;;
13349;SDS011;6744;53.190;6.576;2023-04-06T04:02:44;8.57;;;7.30;;
13349;SDS011;6744;53.190;6.576;2023-04-06T04:05:09;7.47;;;6.73;;
13349;SDS011;6744;53.190;6.576;2023-04-06T04:07:35;6.70;;;6.10;;
13349;SDS011;6744;53.190;6.576;2023-04-06T04:10:00;8.63;;;7.73;;
13349;SDS011;6744;53.190;6.576;2023-04-06T04:12:25;8.33;;;7.53;;
13349;SDS011;6744;53.190;6.576;2023-04-06T04:14:50;8.80;;;7.80;;
13349;SDS011;6744;53.190;6.576;2023-04-06T04:17:16;10.60;;;7.73;;
13349;SDS011;6744;53.190;6.576;2023-04-06T04:19:41;7.93;;;7.13;;
13349;SDS011;6744;53.190;6.576;2023-04-06T04:22:06;8.17;;;7.40;;
13349;SDS011;6744;53.190;6.576;2023-04-06T04:24:32;7.80;;;7.10;;
13349;SDS011;6744;53.190;6.576;2023-04-06T04:26:57;9.43;;;7.90;;
13349;SDS011;6744;53.190;6.576;2023-04-06T04:29:22;8.13;;;7.33;;
13349;SDS011;6744;53.190;6.576;2023-04-06T04:31:48;9.17;;;6.97;;
13349;SDS011;6744;53.190;6.576;2023-04-06T04:34:14;8.40;;;7.60;;
13349;SDS011;6744;53.190;6.576;2023-04-06T04:36:40;7.77;;;6.70;;
13349;SDS011;6744;53.190;6.576;2023-04-06T04:39:07;7.97;;;7.23;;
13349;SDS011;6744;53.190;6.576;2023-04-06T04:41:32;7.37;;;6.30;;
13349;SDS011;6744;53.190;6.576;2023-04-06T04:43:57;8.30;;;7.50;;
13349;SDS011;6744;53.190;6.576;2023-04-06T04:46:23;7.70;;;6.97;;
13349;SDS011;6744;53.190;6.576;2023-04-06T04:48:48;8.73;;;7.50;;
13349;SDS011;6744;53.190;6.576;2023-04-06T04:51:13;7.00;;;6.40;;
13349;SDS011;6744;53.190;6.576;2023-04-06T04:53:40;8.17;;;7.10;;
13349;SDS011;6744;53.190;6.576;2023-04-06T04:56:05;8.33;;;7.53;;
13349;SDS011;6744;53.190;6.576;2023-04-06T04:58:31;8.20;;;7.37;;
13349;SDS011;6744;53.190;6.576;2023-04-06T05:00:56;9.37;;;7.40;;
13349;SDS011;6744;53.190;6.576;2023-04-06T05:03:22;7.30;;;6.63;;
13349;SDS011;6744;53.190;6.576;2023-04-06T05:05:48;8.53;;;6.97;;
13349;SDS011;6744;53.190;6.576;2023-04-06T05:08:13;7.60;;;6.80;;
13349;SDS011;6744;53.190;6.576;2023-04-06T05:10:39;7.50;;;6.80;;
13349;SDS011;6744;53.190;6.576;2023-04-06T05:13:05;7.33;;;6.63;;
13349;SDS011;6744;53.190;6.576;2023-04-06T05:15:30;7.73;;;6.50;;
13349;SDS011;6744;53.190;6.576;2023-04-06T05:17:55;7.50;;;6.53;;
13349;SDS011;6744;53.190;6.576;2023-04-06T05:20:21;7.17;;;6.47;;
13349;SDS011;6744;53.190;6.576;2023-04-06T05:22:46;6.73;;;6.07;;
13349;SDS011;6744;53.190;6.576;2023-04-06T05:25:12;8.70;;;6.50;;
13349;SDS011;6744;53.190;6.576;2023-04-06T05:27:38;7.20;;;6.50;;
13349;SDS011;6744;53.190;6.576;2023-04-06T05:30:04;6.87;;;6.23;;
13349;SDS011;6744;53.190;6.576;2023-04-06T05:32:30;7.13;;;6.43;;
13349;SDS011;6744;53.190;6.576;2023-04-06T05:34:55;7.13;;;6.43;;
13349;SDS011;6744;53.190;6.576;2023-04-06T05:37:21;7.43;;;6.70;;
13349;SDS011;6744;53.190;6.576;2023-04-06T05:39:46;7.33;;;6.17;;
13349;SDS011;6744;53.190;6.576;2023-04-06T05:42:11;7.50;;;6.70;;
13349;SDS011;6744;53.190;6.576;2023-04-06T05:44:37;8.37;;;7.20;;
13349;SDS011;6744;53.190;6.576;2023-04-06T05:47:02;8.63;;;6.73;;
13349;SDS011;6744;53.190;6.576;2023-04-06T05:49:28;6.57;;;5.80;;
13349;SDS011;6744;53.190;6.576;2023-04-06T05:51:53;7.40;;;6.70;;
13349;SDS011;6744;53.190;6.576;2023-04-06T05:54:18;7.03;;;5.90;;
13349;SDS011;6744;53.190;6.576;2023-04-06T05:56:44;8.20;;;7.33;;
13349;SDS011;6744;53.190;6.576;2023-04-06T05:59:09;7.97;;;6.30;;
13349;SDS011;6744;53.190;6.576;2023-04-06T06:01:34;8.43;;;6.63;;
13349;SDS011;6744;53.190;6.576;2023-04-06T06:04:00;7.10;;;6.40;;
13349;SDS011;6744;53.190;6.576;2023-04-06T06:06:27;6.90;;;6.27;;
13349;SDS011;6744;53.190;6.576;2023-04-06T06:08:53;6.53;;;5.60;;
13349;SDS011;6744;53.190;6.576;2023-04-06T06:11:18;7.47;;;5.77;;
13349;SDS011;6744;53.190;6.576;2023-04-06T06:13:43;7.20;;;5.97;;
13349;SDS011;6744;53.190;6.576;2023-04-06T06:16:08;7.00;;;5.97;;
13349;SDS011;6744;53.190;6.576;2023-04-06T06:18:34;7.37;;;5.50;;
13349;SDS011;6744;53.190;6.576;2023-04-06T06:20:59;6.97;;;6.13;;
13349;SDS011;6744;53.190;6.576;2023-04-06T06:23:25;6.73;;;5.80;;
13349;SDS011;6744;53.190;6.576;2023-04-06T06:25:51;7.73;;;5.97;;
13349;SDS011;6744;53.190;6.576;2023-04-06T06:28:16;5.77;;;5.13;;
13349;SDS011;6744;53.190;6.576;2023-04-06T06:30:42;6.63;;;5.70;;
13349;SDS011;6744;53.190;6.576;2023-04-06T06:33:07;7.47;;;5.80;;
13349;SDS011;6744;53.190;6.576;2023-04-06T06:35:32;7.53;;;6.27;;
13349;SDS011;6744;53.190;6.576;2023-04-06T06:37:58;7.83;;;5.77;;
13349;SDS011;6744;53.190;6.576;2023-04-06T06:40:23;7.50;;;5.97;;
13349;SDS011;6744;53.190;6.576;2023-04-06T06:42:49;8.00;;;6.03;;
13349;SDS011;6744;53.190;6.576;2023-04-06T06:45:15;6.60;;;5.87;;
13349;SDS011;6744;53.190;6.576;2023-04-06T06:47:40;8.90;;;5.87;;
13349;SDS011;6744;53.190;6.576;2023-04-06T06:50:06;6.47;;;5.87;;
13349;SDS011;6744;53.190;6.576;2023-04-06T06:52:31;6.13;;;5.50;;
13349;SDS011;6744;53.190;6.576;2023-04-06T06:54:57;9.10;;;7.90;;
13349;SDS011;6744;53.190;6.576;2023-04-06T06:57:22;7.47;;;6.70;;
13349;SDS011;6744;53.190;6.576;2023-04-06T06:59:47;6.57;;;5.70;;
13349;SDS011;6744;53.190;6.576;2023-04-06T07:02:13;7.40;;;6.17;;
13349;SDS011;6744;53.190;6.576;2023-04-06T07:04:38;7.10;;;6.00;;
13349;SDS011;6744;53.190;6.576;2023-04-06T07:07:03;8.33;;;6.20;;
13349;SDS011;6744;53.190;6.576;2023-04-06T07:09:29;8.33;;;6.90;;
13349;SDS011;6744;53.190;6.576;2023-04-06T07:11:54;12.40;;;6.40;;
13349;SDS011;6744;53.190;6.576;2023-04-06T07:14:21;6.37;;;5.77;;
13349;SDS011;6744;53.190;6.576;2023-04-06T07:16:46;7.67;;;6.43;;
13349;SDS011;6744;53.190;6.576;2023-04-06T07:19:13;8.67;;;6.57;;
13349;SDS011;6744;53.190;6.576;2023-04-06T07:21:39;7.47;;;6.60;;
13349;SDS011;6744;53.190;6.576;2023-04-06T07:24:04;6.73;;;5.80;;
13349;SDS011;6744;53.190;6.576;2023-04-06T07:26:29;6.50;;;5.90;;
13349;SDS011;6744;53.190;6.576;2023-04-06T07:28:55;7.23;;;6.13;;
13349;SDS011;6744;53.190;6.576;2023-04-06T07:31:20;8.47;;;6.00;;
13349;SDS011;6744;53.190;6.576;2023-04-06T07:33:46;8.77;;;6.30;;
13349;SDS011;6744;53.190;6.576;2023-04-06T07:36:11;6.77;;;6.07;;
13349;SDS011;6744;53.190;6.576;2023-04-06T07:38:37;7.97;;;6.73;;
13349;SDS011;6744;53.190;6.576;2023-04-06T07:41:02;6.97;;;5.87;;
13349;SDS011;6744;53.190;6.576;2023-04-06T07:43:29;7.23;;;6.10;;
13349;SDS011;6744;53.190;6.576;2023-04-06T07:45:55;6.43;;;5.83;;
13349;SDS011;6744;53.190;6.576;2023-04-06T07:48:22;7.07;;;6.10;;
13349;SDS011;6744;53.190;6.576;2023-04-06T07:50:47;7.17;;;6.47;;
13349;SDS011;6744;53.190;6.576;2023-04-06T07:53:13;8.83;;;6.10;;
13349;SDS011;6744;53.190;6.576;2023-04-06T07:55:38;7.57;;;6.40;;
13349;SDS011;6744;53.190;6.576;2023-04-06T07:58:03;8.23;;;5.97;;
13349;SDS011;6744;53.190;6.576;2023-04-06T08:00:29;6.97;;;6.23;;
13349;SDS011;6744;53.190;6.576;2023-04-06T08:02:54;9.00;;;6.60;;
13349;SDS011;6744;53.190;6.576;2023-04-06T08:05:20;7.00;;;6.37;;
13349;SDS011;6744;53.190;6.576;2023-04-06T08:07:45;7.90;;;6.40;;
13349;SDS011;6744;53.190;6.576;2023-04-06T08:10:11;7.83;;;6.47;;
13349;SDS011;6744;53.190;6.576;2023-04-06T08:12:36;7.67;;;6.37;;
13349;SDS011;6744;53.190;6.576;2023-04-06T08:15:01;7.50;;;6.80;;
13349;SDS011;6744;53.190;6.576;2023-04-06T08:17:28;7.50;;;6.63;;
13349;SDS011;6744;53.190;6.576;2023-04-06T08:19:55;7.77;;;6.60;;
13349;SDS011;6744;53.190;6.576;2023-04-06T08:22:20;7.83;;;7.07;;
13349;SDS011;6744;53.190;6.576;2023-04-06T08:24:46;8.87;;;6.87;;
13349;SDS011;6744;53.190;6.576;2023-04-06T08:27:11;7.57;;;6.07;;
13349;SDS011;6744;53.190;6.576;2023-04-06T08:29:38;7.67;;;6.83;;
13349;SDS011;6744;53.190;6.576;2023-04-06T08:32:03;8.30;;;7.50;;
13349;SDS011;6744;53.190;6.576;2023-04-06T08:34:30;7.50;;;6.73;;
13349;SDS011;6744;53.190;6.576;2023-04-06T08:36:56;6.80;;;6.13;;
13349;SDS011;6744;53.190;6.576;2023-04-06T08:39:22;8.57;;;6.87;;
13349;SDS011;6744;53.190;6.576;2023-04-06T08:41:50;7.33;;;6.30;;
13349;SDS011;6744;53.190;6.576;2023-04-06T08:44:17;8.23;;;6.10;;
13349;SDS011;6744;53.190;6.576;2023-04-06T08:46:43;7.33;;;6.63;;
13349;SDS011;6744;53.190;6.576;2023-04-06T08:49:08;9.20;;;6.90;;
13349;SDS011;6744;53.190;6.576;2023-04-06T08:51:34;7.67;;;6.30;;
13349;SDS011;6744;53.190;6.576;2023-04-06T08:53:59;7.27;;;5.90;;
13349;SDS011;6744;53.190;6.576;2023-04-06T08:56:26;7.40;;;6.70;;
13349;SDS011;6744;53.190;6.576;2023-04-06T08:58:52;6.93;;;6.23;;
13349;SDS011;6744;53.190;6.576;2023-04-06T09:01:22;7.60;;;6.80;;
13349;SDS011;6744;53.190;6.576;2023-04-06T09:03:50;7.30;;;6.17;;
13349;SDS011;6744;53.190;6.576;2023-04-06T09:06:16;7.20;;;6.07;;
13349;SDS011;6744;53.190;6.576;2023-04-06T09:08:42;7.27;;;6.57;;
13349;SDS011;6744;53.190;6.576;2023-04-06T09:11:08;6.43;;;5.83;;
13349;SDS011;6744;53.190;6.576;2023-04-06T09:16:12;7.47;;;6.77;;
13349;SDS011;6744;53.190;6.576;2023-04-06T09:18:37;7.07;;;6.47;;
13349;SDS011;6744;53.190;6.576;2023-04-06T09:21:04;7.17;;;6.47;;
13349;SDS011;6744;53.190;6.576;2023-04-06T09:23:30;6.83;;;6.23;;
13349;SDS011;6744;53.190;6.576;2023-04-06T09:28:43;7.93;;;7.20;;
13349;SDS011;6744;53.190;6.576;2023-04-06T09:31:08;9.57;;;7.20;;
13349;SDS011;6744;53.190;6.576;2023-04-06T09:33:37;7.53;;;6.83;;
13349;SDS011;6744;53.190;6.576;2023-04-06T09:36:04;7.57;;;6.80;;
13349;SDS011;6744;53.190;6.576;2023-04-06T09:38:29;8.03;;;6.63;;
13349;SDS011;6744;53.190;6.576;2023-04-06T09:40:55;7.70;;;6.87;;
13349;SDS011;6744;53.190;6.576;2023-04-06T09:43:24;7.90;;;7.20;;
13349;SDS011;6744;53.190;6.576;2023-04-06T09:45:51;7.90;;;7.20;;
13349;SDS011;6744;53.190;6.576;2023-04-06T09:48:17;8.07;;;7.10;;
13349;SDS011;6744;53.190;6.576;2023-04-06T09:50:43;7.73;;;6.87;;
13349;SDS011;6744;53.190;6.576;2023-04-06T09:53:09;8.90;;;8.00;;
13349;SDS011;6744;53.190;6.576;2023-04-06T09:55:36;8.87;;;7.97;;
13349;SDS011;6744;53.190;6.576;2023-04-06T09:58:09;8.93;;;8.03;;
13349;SDS011;6744;53.190;6.576;2023-04-06T10:00:47;9.60;;;7.77;;
13349;SDS011;6744;53.190;6.576;2023-04-06T10:03:25;8.70;;;7.90;;
13349;SDS011;6744;53.190;6.576;2023-04-06T10:05:54;9.03;;;7.80;;
13349;SDS011;6744;53.190;6.576;2023-04-06T10:08:24;9.70;;;8.00;;
13349;SDS011;6744;53.190;6.576;2023-04-06T10:10:51;9.07;;;8.00;;
13349;SDS011;6744;53.190;6.576;2023-04-06T10:13:16;9.00;;;7.60;;
13349;SDS011;6744;53.190;6.576;2023-04-06T10:15:43;9.70;;;8.70;;
13349;SDS011;6744;53.190;6.576;2023-04-06T10:18:09;9.43;;;8.50;;
13349;SDS011;6744;53.190;6.576;2023-04-06T10:23:26;9.77;;;8.77;;
13349;SDS011;6744;53.190;6.576;2023-04-06T10:25:56;9.30;;;8.30;;
13349;SDS011;6744;53.190;6.576;2023-04-06T10:28:23;10.83;;;9.50;;
13349;SDS011;6744;53.190;6.576;2023-04-06T10:30:49;12.40;;;9.40;;
13349;SDS011;6744;53.190;6.576;2023-04-06T10:33:22;10.87;;;9.77;;
13349;SDS011;6744;53.190;6.576;2023-04-06T10:35:47;12.03;;;10.73;;
13349;SDS011;6744;53.190;6.576;2023-04-06T10:38:12;11.00;;;10.00;;
13349;SDS011;6744;53.190;6.576;2023-04-06T10:40:45;11.27;;;10.17;;
13349;SDS011;6744;53.190;6.576;2023-04-06T10:43:13;11.90;;;10.73;;
13349;SDS011;6744;53.190;6.576;2023-04-06T10:45:42;12.30;;;11.10;;
13349;SDS011;6744;53.190;6.576;2023-04-06T10:48:15;13.10;;;11.40;;
13349;SDS011;6744;53.190;6.576;2023-04-06T10:50:41;14.17;;;12.77;;
13349;SDS011;6744;53.190;6.576;2023-04-06T10:53:08;14.50;;;12.53;;
13349;SDS011;6744;53.190;6.576;2023-04-06T10:55:33;17.47;;;13.80;;
13349;SDS011;6744;53.190;6.576;2023-04-06T10:57:59;16.80;;;15.10;;
13349;SDS011;6744;53.190;6.576;2023-04-06T11:00:25;16.30;;;14.80;;
13349;SDS011;6744;53.190;6.576;2023-04-06T11:02:50;15.60;;;14.10;;
13349;SDS011;6744;53.190;6.576;2023-04-06T11:05:16;16.27;;;14.63;;
13349;SDS011;6744;53.190;6.576;2023-04-06T11:07:42;15.57;;;13.93;;
13349;SDS011;6744;53.190;6.576;2023-04-06T11:10:09;16.77;;;15.07;;
13349;SDS011;6744;53.190;6.576;2023-04-06T11:12:34;16.80;;;15.00;;
13349;SDS011;6744;53.190;6.576;2023-04-06T11:15:01;15.90;;;14.20;;
13349;SDS011;6744;53.190;6.576;2023-04-06T11:17:31;18.90;;;16.87;;
13349;SDS011;6744;53.190;6.576;2023-04-06T11:19:58;18.80;;;16.90;;
13349;SDS011;6744;53.190;6.576;2023-04-06T11:22:24;18.07;;;16.23;;
13349;SDS011;6744;53.190;6.576;2023-04-06T11:24:50;19.27;;;16.23;;
13349;SDS011;6744;53.190;6.576;2023-04-06T11:27:15;26.90;;;18.20;;
13349;SDS011;6744;53.190;6.576;2023-04-06T11:29:41;19.97;;;17.03;;
13349;SDS011;6744;53.190;6.576;2023-04-06T11:32:07;19.43;;;17.17;;
13349;SDS011;6744;53.190;6.576;2023-04-06T11:34:34;18.93;;;16.93;;
13349;SDS011;6744;53.190;6.576;2023-04-06T11:37:02;18.50;;;16.60;;
13349;SDS011;6744;53.190;6.576;2023-04-06T11:39:30;18.77;;;16.50;;
13349;SDS011;6744;53.190;6.576;2023-04-06T11:42:00;19.50;;;17.47;;
13349;SDS011;6744;53.190;6.576;2023-04-06T11:44:36;19.27;;;17.27;;
13349;SDS011;6744;53.190;6.576;2023-04-06T11:47:10;19.70;;;17.80;;
13349;SDS011;6744;53.190;6.576;2023-04-06T11:49:37;19.97;;;17.50;;
13349;SDS011;6744;53.190;6.576;2023-04-06T11:52:16;20.70;;;18.70;;
13349;SDS011;6744;53.190;6.576;2023-04-06T11:54:46;36.83;;;20.70;;
13349;SDS011;6744;53.190;6.576;2023-04-06T11:57:14;19.93;;;17.93;;
13349;SDS011;6744;53.190;6.576;2023-04-06T11:59:41;26.77;;;18.80;;
13349;SDS011;6744;53.190;6.576;2023-04-06T12:02:07;19.00;;;16.90;;
13349;SDS011;6744;53.190;6.576;2023-04-06T12:04:32;19.20;;;17.13;;
13349;SDS011;6744;53.190;6.576;2023-04-06T12:06:57;19.23;;;17.23;;
13349;SDS011;6744;53.190;6.576;2023-04-06T12:09:23;19.70;;;17.60;;
13349;SDS011;6744;53.190;6.576;2023-04-06T12:11:49;19.83;;;17.47;;
13349;SDS011;6744;53.190;6.576;2023-04-06T12:14:14;20.80;;;18.60;;
13349;SDS011;6744;53.190;6.576;2023-04-06T12:16:40;19.87;;;17.77;;
13349;SDS011;6744;53.190;6.576;2023-04-06T12:19:05;19.63;;;17.53;;
13349;SDS011;6744;53.190;6.576;2023-04-06T12:21:31;20.33;;;18.23;;
13349;SDS011;6744;53.190;6.576;2023-04-06T12:23:57;18.10;;;16.10;;
13349;SDS011;6744;53.190;6.576;2023-04-06T12:26:23;19.97;;;17.33;;
13349;SDS011;6744;53.190;6.576;2023-04-06T12:28:49;19.70;;;17.60;;
13349;SDS011;6744;53.190;6.576;2023-04-06T12:31:18;19.10;;;16.87;;
13349;SDS011;6744;53.190;6.576;2023-04-06T12:33:50;18.80;;;16.80;;
13349;SDS011;6744;53.190;6.576;2023-04-06T12:36:19;18.77;;;16.60;;
13349;SDS011;6744;53.190;6.576;2023-04-06T12:38:49;19.33;;;16.37;;
13349;SDS011;6744;53.190;6.576;2023-04-06T12:41:15;26.97;;;17.13;;
13349;SDS011;6744;53.190;6.576;2023-04-06T12:43:41;25.17;;;17.23;;
13349;SDS011;6744;53.190;6.576;2023-04-06T12:46:07;17.43;;;15.60;;
13349;SDS011;6744;53.190;6.576;2023-04-06T12:48:32;18.70;;;16.43;;
13349;SDS011;6744;53.190;6.576;2023-04-06T12:50:58;32.57;;;17.93;;
13349;SDS011;6744;53.190;6.576;2023-04-06T12:53:25;18.90;;;16.27;;
13349;SDS011;6744;53.190;6.576;2023-04-06T12:55:50;19.87;;;16.80;;
13349;SDS011;6744;53.190;6.576;2023-04-06T12:58:16;18.33;;;16.03;;
13349;SDS011;6744;53.190;6.576;2023-04-06T13:00:42;19.33;;;16.60;;
13349;SDS011;6744;53.190;6.576;2023-04-06T13:03:07;18.80;;;16.87;;
13349;SDS011;6744;53.190;6.576;2023-04-06T13:05:33;20.20;;;17.40;;
13349;SDS011;6744;53.190;6.576;2023-04-06T13:07:58;21.00;;;17.60;;
13349;SDS011;6744;53.190;6.576;2023-04-06T13:10:23;41.83;;;19.70;;
13349;SDS011;6744;53.190;6.576;2023-04-06T13:12:49;32.80;;;18.73;;
13349;SDS011;6744;53.190;6.576;2023-04-06T13:15:15;29.40;;;18.60;;
13349;SDS011;6744;53.190;6.576;2023-04-06T13:17:41;30.17;;;18.50;;
13349;SDS011;6744;53.190;6.576;2023-04-06T13:20:06;17.17;;;15.47;;
13349;SDS011;6744;53.190;6.576;2023-04-06T13:22:32;18.67;;;16.67;;
13349;SDS011;6744;53.190;6.576;2023-04-06T13:24:57;19.63;;;17.10;;
13349;SDS011;6744;53.190;6.576;2023-04-06T13:27:22;18.00;;;16.20;;
13349;SDS011;6744;53.190;6.576;2023-04-06T13:29:48;18.20;;;16.33;;
13349;SDS011;6744;53.190;6.576;2023-04-06T13:32:13;18.60;;;16.47;;
13349;SDS011;6744;53.190;6.576;2023-04-06T13:34:39;19.30;;;17.33;;
13349;SDS011;6744;53.190;6.576;2023-04-06T13:37:05;18.07;;;16.23;;
13349;SDS011;6744;53.190;6.576;2023-04-06T13:39:31;19.43;;;17.47;;
13349;SDS011;6744;53.190;6.576;2023-04-06T13:41:56;20.43;;;16.30;;
13349;SDS011;6744;53.190;6.576;2023-04-06T13:44:22;18.60;;;16.43;;
13349;SDS011;6744;53.190;6.576;2023-04-06T13:46:47;17.57;;;15.70;;
13349;SDS011;6744;53.190;6.576;2023-04-06T13:49:13;17.57;;;15.80;;
13349;SDS011;6744;53.190;6.576;2023-04-06T13:51:38;15.83;;;14.23;;
13349;SDS011;6744;53.190;6.576;2023-04-06T13:54:04;16.00;;;14.20;;
13349;SDS011;6744;53.190;6.576;2023-04-06T13:56:29;14.57;;;13.07;;
13349;SDS011;6744;53.190;6.576;2023-04-06T13:58:55;14.97;;;13.37;;
13349;SDS011;6744;53.190;6.576;2023-04-06T14:01:21;15.70;;;14.07;;
13349;SDS011;6744;53.190;6.576;2023-04-06T14:03:47;16.37;;;14.73;;
13349;SDS011;6744;53.190;6.576;2023-04-06T14:06:13;14.57;;;13.07;;
13349;SDS011;6744;53.190;6.576;2023-04-06T14:08:38;12.83;;;11.53;;
13349;SDS011;6744;53.190;6.576;2023-04-06T14:11:04;12.87;;;11.60;;
13349;SDS011;6744;53.190;6.576;2023-04-06T14:13:29;14.47;;;12.67;;
13349;SDS011;6744;53.190;6.576;2023-04-06T14:15:55;13.07;;;11.70;;
13349;SDS011;6744;53.190;6.576;2023-04-06T14:18:21;13.30;;;11.93;;
13349;SDS011;6744;53.190;6.576;2023-04-06T14:20:54;13.63;;;12.27;;
13349;SDS011;6744;53.190;6.576;2023-04-06T14:23:20;13.40;;;12.07;;
13349;SDS011;6744;53.190;6.576;2023-04-06T14:25:46;14.13;;;12.47;;
13349;SDS011;6744;53.190;6.576;2023-04-06T14:28:11;13.30;;;11.87;;
13349;SDS011;6744;53.190;6.576;2023-04-06T14:30:37;15.77;;;13.20;;
13349;SDS011;6744;53.190;6.576;2023-04-06T14:33:03;14.10;;;12.30;;
13349;SDS011;6744;53.190;6.576;2023-04-06T14:35:28;12.80;;;11.53;;
13349;SDS011;6744;53.190;6.576;2023-04-06T14:37:55;14.33;;;11.80;;
13349;SDS011;6744;53.190;6.576;2023-04-06T14:40:22;13.70;;;12.27;;
13349;SDS011;6744;53.190;6.576;2023-04-06T14:42:48;14.00;;;12.50;;
13349;SDS011;6744;53.190;6.576;2023-04-06T14:45:15;14.20;;;12.80;;
13349;SDS011;6744;53.190;6.576;2023-04-06T14:47:42;12.93;;;11.73;;
13349;SDS011;6744;53.190;6.576;2023-04-06T14:50:07;12.37;;;11.17;;
13349;SDS011;6744;53.190;6.576;2023-04-06T14:52:33;12.73;;;11.23;;